Time;durP1;ratioP1;P1;durP2;ratioP2;P2;SDS_P1;SDS_P2;PMS_P1;PMS_P2;Temp;Humidity;BMP_temperature;BMP_pressure;BME280_temperature;BME280_humidity;BME280_pressure;Samples;Min_cycle;Max_cycle;Signal;HPM_P1;HPM_P2
2022/12/18 00:00:42;;;;;;;92.25;35.08;;;-0.10;92.40;;;;;;4990236;28;20139;-72
2022/12/18 00:03:08;;;;;;;98.13;37.90;;;-0.10;92.30;;;;;;4988856;28;20046;-72
2022/12/18 00:05:33;;;;;;;103.60;38.55;;;-0.10;92.40;;;;;;4988875;28;20113;-72
2022/12/18 00:07:59;;;;;;;103.03;37.70;;;-0.20;92.70;;;;;;4992093;28;20034;-72
2022/12/18 00:10:24;;;;;;;85.93;34.93;;;-0.10;92.70;;;;;;4987517;28;20377;-72
2022/12/18 00:12:50;;;;;;;97.95;38.15;;;-0.10;92.40;;;;;;4997138;28;20297;-71
2022/12/18 00:15:15;;;;;;;103.17;37.67;;;-0.10;92.40;;;;;;4989413;28;20034;-72
2022/12/18 00:17:41;;;;;;;91.10;35.70;;;-0.10;92.90;;;;;;4988672;28;20446;-71
2022/12/18 00:20:07;;;;;;;97.03;35.80;;;-0.10;92.60;;;;;;4988402;28;20503;-72
2022/12/18 00:22:33;;;;;;;;;;;-0.20;92.50;;;;;;4990864;28;20034;-72
2022/12/18 00:24:58;;;;;;;97.00;34.20;;;-0.10;92.90;;;;;;4988161;28;19933;-71
2022/12/18 00:27:24;;;;;;;93.28;35.17;;;-0.30;93.40;;;;;;4989979;28;20030;-72
2022/12/18 00:29:50;;;;;;;100.35;33.28;;;-0.40;93.90;;;;;;4985150;28;20029;-72
2022/12/18 00:32:15;;;;;;;102.18;34.00;;;-0.60;94.30;;;;;;4987590;28;20499;-71
2022/12/18 00:34:41;;;;;;;101.72;32.13;;;-0.60;94.60;;;;;;4989791;28;20810;-71
2022/12/18 00:37:07;;;;;;;95.35;31.40;;;-0.70;94.90;;;;;;4988158;28;20383;-71
2022/12/18 00:39:32;;;;;;;100.55;35.40;;;-0.80;95.00;;;;;;4989244;28;20041;-72
2022/12/18 00:44:42;;;;;;;107.13;36.50;;;-0.80;95.20;;;;;;4989781;28;20136;-71
2022/12/18 00:47:08;;;;;;;103.63;33.80;;;-1.00;95.50;;;;;;4988727;28;20046;-71
2022/12/18 00:49:34;;;;;;;104.17;33.07;;;-1.00;95.60;;;;;;4988863;28;20493;-71
2022/12/18 00:51:59;;;;;;;103.43;31.60;;;-1.10;95.80;;;;;;4989107;28;20269;-72
2022/12/18 00:54:25;;;;;;;112.57;33.63;;;-1.10;95.90;;;;;;4987308;28;20043;-72
2022/12/18 00:56:50;;;;;;;112.22;34.08;;;-1.20;96.20;;;;;;4987869;28;20080;-71
2022/12/18 00:59:17;;;;;;;109.00;34.20;;;-1.20;96.30;;;;;;4984572;28;20030;-71
2022/12/18 01:01:43;;;;;;;103.53;35.67;;;-1.20;96.40;;;;;;4990009;28;20328;-72
2022/12/18 01:04:09;;;;;;;123.68;36.45;;;-1.20;96.40;;;;;;4984721;28;20492;-71
2022/12/18 01:06:34;;;;;;;115.57;37.80;;;-1.20;96.20;;;;;;4988663;28;20034;-71
2022/12/18 01:09:01;;;;;;;137.68;38.10;;;-1.20;96.30;;;;;;4985228;28;20065;-72
2022/12/18 01:11:26;;;;;;;105.68;33.78;;;-1.20;96.20;;;;;;4985874;28;20062;-71
2022/12/18 01:13:53;;;;;;;103.65;34.40;;;-1.20;96.20;;;;;;4989510;28;20058;-71
2022/12/18 01:16:19;;;;;;;94.70;31.42;;;-1.20;95.90;;;;;;4988494;28;20080;-71
2022/12/18 01:18:45;;;;;;;103.68;35.13;;;-1.30;95.50;;;;;;4988022;28;20023;-71
2022/12/18 01:21:16;;;;;;;99.25;34.15;;;-1.30;95.40;;;;;;4989036;28;20033;-71
2022/12/18 01:23:42;;;;;;;116.05;36.67;;;-1.40;95.30;;;;;;4989514;28;20041;-71
2022/12/18 01:26:15;;;;;;;111.97;36.70;;;-1.30;95.50;;;;;;4988444;28;20034;-71
2022/12/18 01:28:43;;;;;;;111.20;35.78;;;-1.40;95.80;;;;;;4987748;28;20027;-71
2022/12/18 01:31:13;;;;;;;90.50;34.15;;;-1.40;95.60;;;;;;4989783;28;20068;-71
2022/12/18 01:33:38;;;;;;;95.57;33.45;;;-1.40;95.50;;;;;;4988862;28;20026;-71
2022/12/18 01:36:04;;;;;;;109.18;39.72;;;-1.40;95.40;;;;;;4993293;28;20391;-71
2022/12/18 01:38:30;;;;;;;95.57;34.90;;;-1.40;95.40;;;;;;4988586;28;20088;-71
2022/12/18 01:41:00;;;;;;;115.10;38.42;;;-1.50;95.20;;;;;;4990460;28;20043;-71
2022/12/18 01:43:59;;;;;;;109.72;38.60;;;-1.50;95.30;;;;;;4990194;28;20046;-71
2022/12/18 01:46:26;;;;;;;107.53;38.15;;;-1.60;95.80;;;;;;4989071;28;20490;-70
2022/12/18 01:49:00;;;;;;;113.57;35.88;;;-1.60;96.10;;;;;;4989880;28;20042;-71
2022/12/18 01:51:29;;;;;;;109.88;38.25;;;-1.70;96.30;;;;;;4990269;28;20800;-71
2022/12/18 01:53:57;;;;;;;105.20;36.47;;;-1.70;96.10;;;;;;4991819;28;20051;-71
2022/12/18 01:56:23;;;;;;;92.30;34.22;;;-1.60;95.80;;;;;;4989935;28;20045;-71
2022/12/18 01:58:49;;;;;;;108.22;36.83;;;-1.60;95.60;;;;;;4991480;28;20033;-71
2022/12/18 02:01:14;;;;;;;119.95;38.22;;;-1.60;95.50;;;;;;4991111;28;20046;-71
2022/12/18 02:03:44;;;;;;;110.95;38.13;;;-1.60;95.50;;;;;;4994785;28;20512;-71
2022/12/18 02:06:33;;;;;;;102.05;34.10;;;-1.70;95.70;;;;;;4991627;28;20466;-71
2022/12/18 02:09:14;;;;;;;105.53;35.28;;;-1.70;95.50;;;;;;4988387;28;20453;-71
2022/12/18 02:11:52;;;;;;;102.45;35.70;;;-1.70;95.50;;;;;;4990681;28;20026;-71
2022/12/18 02:14:21;;;;;;;123.63;37.92;;;-1.80;95.90;;;;;;4994040;28;20081;-71
2022/12/18 02:17:06;;;;;;;120.18;35.75;;;-1.80;96.50;;;;;;4988612;28;20076;-71
2022/12/18 02:19:46;;;;;;;133.10;40.15;;;-1.80;96.40;;;;;;4991143;28;20110;-71
2022/12/18 02:22:15;;;;;;;159.65;42.22;;;-1.80;96.60;;;;;;4990958;28;20046;-71
2022/12/18 02:25:02;;;;;;;141.48;42.10;;;-1.70;96.70;;;;;;4991191;28;20093;-71
2022/12/18 02:27:32;;;;;;;127.15;38.25;;;-1.70;96.60;;;;;;4990190;28;20034;-71
2022/12/18 02:30:01;;;;;;;130.77;41.33;;;-1.80;96.40;;;;;;4986342;28;20438;-71
2022/12/18 02:32:40;;;;;;;118.65;36.22;;;-1.80;96.50;;;;;;4992547;28;20505;-71
2022/12/18 02:35:11;;;;;;;135.23;40.30;;;-1.80;96.70;;;;;;4989447;28;20548;-71
2022/12/18 02:37:40;;;;;;;128.05;39.45;;;-1.90;96.50;;;;;;4987454;28;20054;-71
2022/12/18 02:40:07;;;;;;;128.13;38.10;;;-1.90;96.50;;;;;;4990424;28;20050;-71
2022/12/18 02:42:33;;;;;;;121.95;37.08;;;-1.80;96.50;;;;;;4993033;28;20042;-71
2022/12/18 02:44:59;;;;;;;120.43;38.25;;;-1.90;96.50;;;;;;4979551;28;20027;-71
2022/12/18 02:47:29;;;;;;;118.00;37.83;;;-1.80;96.40;;;;;;4984773;28;20053;-71
2022/12/18 02:50:02;;;;;;;110.88;36.55;;;-1.90;96.20;;;;;;4987439;28;20398;-71
2022/12/18 02:52:45;;;;;;;95.63;34.22;;;-1.80;96.00;;;;;;4992217;28;20049;-71
2022/12/18 02:55:46;;;;;;;99.20;33.83;;;-1.80;95.90;;;;;;4989678;28;20116;-70
2022/12/18 02:58:39;;;;;;;89.35;31.35;;;-1.90;95.50;;;;;;5004414;28;20130;-71
2022/12/18 03:01:30;;;;;;;87.30;31.33;;;-1.80;95.20;;;;;;4984794;28;20046;-71
2022/12/18 03:04:02;;;;;;;81.38;29.70;;;-1.90;95.10;;;;;;4984992;28;20045;-71
2022/12/18 03:06:37;;;;;;;86.05;31.33;;;-2.00;95.00;;;;;;4992756;28;20018;-71
2022/12/18 03:09:22;;;;;;;93.50;33.78;;;-2.00;95.10;;;;;;4988102;28;20034;-71
2022/12/18 03:14:44;;;;;;;83.47;32.05;;;-2.00;94.90;;;;;;4990290;28;20045;-71
2022/12/18 03:17:14;;;;;;;96.00;34.22;;;-2.00;94.80;;;;;;4988609;28;20034;-71
2022/12/18 03:19:42;;;;;;;82.72;32.00;;;-2.00;94.80;;;;;;4990592;28;20026;-71
2022/12/18 03:22:09;;;;;;;85.05;30.90;;;-2.10;94.60;;;;;;4987788;28;20046;-71
2022/12/18 03:24:38;;;;;;;80.95;30.60;;;-2.00;94.70;;;;;;4990173;28;20026;-71
2022/12/18 03:27:09;;;;;;;94.10;32.05;;;-2.10;94.80;;;;;;4990929;28;20026;-71
2022/12/18 03:29:46;;;;;;;81.78;29.65;;;-2.10;94.60;;;;;;4992247;28;20510;-71
2022/12/18 03:32:18;;;;;;;84.03;30.73;;;-2.10;94.40;;;;;;4988166;28;20030;-71
2022/12/18 03:34:48;;;;;;;99.63;37.92;;;-2.10;94.60;;;;;;4990334;28;20034;-71
2022/12/18 03:37:14;;;;;;;98.30;35.58;;;-2.20;94.50;;;;;;4987663;28;20035;-71
2022/12/18 03:39:41;;;;;;;90.65;34.15;;;-2.10;94.50;;;;;;4991082;28;20371;-71
2022/12/18 03:42:21;;;;;;;85.10;33.05;;;-2.20;94.50;;;;;;4987867;28;20052;-71
2022/12/18 03:45:10;;;;;;;76.65;31.25;;;-2.20;94.30;;;;;;4990770;28;20061;-71
2022/12/18 03:47:55;;;;;;;80.70;32.38;;;-2.20;94.30;;;;;;4989893;28;20621;-71
2022/12/18 03:50:29;;;;;;;90.57;31.50;;;-2.40;94.50;;;;;;4992171;28;20157;-71
2022/12/18 03:53:13;;;;;;;90.30;34.53;;;-2.40;94.70;;;;;;4987632;28;20026;-71
2022/12/18 03:55:40;;;;;;;86.78;32.90;;;-2.40;94.80;;;;;;4990216;28;20031;-71
2022/12/18 03:58:08;;;;;;;88.03;33.92;;;-2.30;94.80;;;;;;4989796;28;20118;-71
2022/12/18 04:00:34;;;;;;;87.30;32.58;;;-2.30;94.60;;;;;;4990514;28;20196;-71
2022/12/18 04:03:01;;;;;;;;;;;-2.30;94.60;;;;;;4987838;28;20062;-71
2022/12/18 04:05:28;;;;;;;110.03;39.57;;;-2.30;94.70;;;;;;4981709;28;20309;-71
2022/12/18 04:07:56;;;;;;;93.72;36.30;;;-2.20;94.60;;;;;;4989134;28;20160;-71
2022/12/18 04:10:22;;;;;;;90.53;35.25;;;-2.30;94.50;;;;;;4991138;28;20041;-71
2022/12/18 04:12:47;;;;;;;96.95;38.30;;;-2.30;94.50;;;;;;4990526;28;20038;-71
2022/12/18 04:15:14;;;;;;;139.82;49.42;;;-2.40;95.20;;;;;;4989968;28;20514;-71
2022/12/18 04:17:45;;;;;;;;;;;-2.40;96.00;;;;;;4989232;28;20032;-71
2022/12/18 04:20:11;;;;;;;91.80;36.60;;;-2.30;96.30;;;;;;5020949;28;20386;-71
2022/12/18 04:22:36;;;;;;;97.03;37.38;;;-2.30;95.80;;;;;;4989148;28;20074;-71
2022/12/18 04:25:02;;;;;;;90.78;36.90;;;-2.30;95.70;;;;;;4984565;28;20030;-71
2022/12/18 04:27:28;;;;;;;102.65;36.10;;;-2.10;96.30;;;;;;4991297;28;20398;-70
2022/12/18 04:29:53;;;;;;;112.28;35.63;;;-2.00;96.60;;;;;;4986069;28;20038;-71
2022/12/18 04:32:19;;;;;;;76.80;28.75;;;-2.00;96.80;;;;;;4988634;28;20034;-70
2022/12/18 04:34:45;;;;;;;72.18;27.15;;;-1.70;97.40;;;;;;4992153;28;20663;-71
2022/12/18 04:37:11;;;;;;;77.32;28.40;;;-1.70;97.10;;;;;;4988482;28;20446;-71
2022/12/18 04:39:36;;;;;;;77.63;29.20;;;-1.80;96.90;;;;;;4995952;28;20130;-70
2022/12/18 04:42:02;;;;;;;68.10;27.25;;;-1.60;96.90;;;;;;4989807;28;20043;-70
2022/12/18 04:44:28;;;;;;;82.75;29.73;;;-1.70;96.50;;;;;;4989714;28;20034;-71
2022/12/18 04:46:53;;;;;;;78.03;27.98;;;-1.80;96.40;;;;;;4989745;28;20074;-71
2022/12/18 04:49:19;;;;;;;77.90;30.40;;;-1.80;97.00;;;;;;4985963;28;20038;-71
2022/12/18 04:51:45;;;;;;;72.72;27.50;;;-1.80;97.10;;;;;;4990522;28;20065;-71
2022/12/18 04:54:10;;;;;;;88.20;30.98;;;-1.80;96.80;;;;;;4989516;28;20034;-71
2022/12/18 04:56:36;;;;;;;74.00;29.00;;;-1.80;97.20;;;;;;4986565;28;20117;-70
2022/12/18 04:59:01;;;;;;;81.93;28.15;;;-1.80;97.10;;;;;;4990786;28;20499;-70
2022/12/18 05:01:27;;;;;;;84.68;31.02;;;-1.90;96.80;;;;;;4989499;28;20030;-71
2022/12/18 05:03:53;;;;;;;86.50;27.35;;;-1.90;97.20;;;;;;4986333;28;21053;-70
2022/12/18 05:06:18;;;;;;;81.85;26.95;;;-2.00;96.90;;;;;;4991099;28;20500;-71
2022/12/18 05:08:44;;;;;;;78.93;27.55;;;-2.10;96.90;;;;;;4985248;28;20042;-70
2022/12/18 05:11:16;;;;;;;67.53;27.67;;;-2.10;97.10;;;;;;4990970;28;20048;-71
2022/12/18 05:13:44;;;;;;;75.07;29.27;;;-2.10;96.60;;;;;;4994768;28;20109;-71
2022/12/18 05:16:10;;;;;;;77.15;29.20;;;-2.10;96.00;;;;;;4992787;28;20034;-71
2022/12/18 05:18:35;;;;;;;83.57;31.45;;;-2.10;96.00;;;;;;4995453;28;20774;-71
2022/12/18 05:21:01;;;;;;;82.80;29.95;;;-2.10;95.70;;;;;;4989789;28;20034;-71
2022/12/18 05:23:27;;;;;;;71.57;28.23;;;-2.20;95.40;;;;;;4990757;28;20112;-71
2022/12/18 05:25:54;;;;;;;73.78;28.02;;;-2.10;95.90;;;;;;4992888;28;20045;-71
2022/12/18 05:28:20;;;;;;;81.47;30.58;;;-2.20;95.90;;;;;;5005526;28;20038;-71
2022/12/18 05:30:50;;;;;;;91.50;33.80;;;-2.20;95.90;;;;;;4991204;28;20137;-71
2022/12/18 05:33:16;;;;;;;82.25;33.35;;;-2.20;95.40;;;;;;4991258;28;20034;-71
2022/12/18 05:35:42;;;;;;;;;;;-2.20;95.60;;;;;;4993946;28;20038;-71
2022/12/18 05:38:07;;;;;;;86.97;32.70;;;-2.20;95.50;;;;;;4989772;28;19917;-71
2022/12/18 05:40:33;;;;;;;83.57;31.50;;;-2.20;95.70;;;;;;4992938;28;20062;-70
2022/12/18 05:42:58;;;;;;;112.18;34.15;;;-2.30;95.60;;;;;;4993473;28;20038;-71
2022/12/18 05:45:24;;;;;;;88.07;30.80;;;-1.90;97.70;;;;;;4987736;28;20407;-71
2022/12/18 05:47:50;;;;;;;78.32;30.25;;;-2.00;97.00;;;;;;4988385;28;20046;-71
2022/12/18 05:50:15;;;;;;;85.75;30.75;;;-2.00;97.10;;;;;;4990592;28;20482;-71
2022/12/18 05:52:41;;;;;;;99.85;32.17;;;-1.90;97.60;;;;;;4990374;28;20521;-71
2022/12/18 05:55:07;;;;;;;87.10;31.98;;;-1.80;97.70;;;;;;4988280;28;20037;-71
2022/12/18 05:57:33;;;;;;;97.47;31.90;;;-1.40;98.60;;;;;;4991244;28;20033;-71
2022/12/18 05:59:58;;;;;;;64.47;28.85;;;-1.10;98.00;;;;;;4992561;28;20066;-71
2022/12/18 06:02:24;;;;;;;70.18;28.25;;;-0.80;96.90;;;;;;4990588;28;20046;-70
2022/12/18 06:04:49;;;;;;;75.57;29.50;;;-0.70;96.80;;;;;;4989022;28;20720;-71
2022/12/18 06:07:15;;;;;;;58.83;26.70;;;-0.80;96.80;;;;;;4991415;28;20034;-71
2022/12/18 06:09:40;;;;;;;68.82;28.65;;;-0.70;96.90;;;;;;4989127;28;20036;-70
2022/12/18 06:12:06;;;;;;;91.55;33.13;;;-0.80;96.80;;;;;;4989517;28;20669;-71
2022/12/18 06:14:32;;;;;;;78.13;29.30;;;-1.00;96.90;;;;;;4992561;28;20072;-71
2022/12/18 06:16:57;;;;;;;82.22;29.00;;;-1.10;96.80;;;;;;4989085;28;20046;-70
2022/12/18 06:19:23;;;;;;;85.90;28.42;;;-1.10;97.00;;;;;;4987360;28;20029;-70
2022/12/18 06:21:49;;;;;;;84.93;29.75;;;-1.10;97.00;;;;;;4990955;28;20037;-70
2022/12/18 06:24:15;;;;;;;79.40;29.05;;;-0.90;97.00;;;;;;4991906;28;20026;-70
2022/12/18 06:26:41;;;;;;;65.32;24.88;;;-0.90;96.90;;;;;;4991552;28;20042;-70
2022/12/18 06:29:06;;;;;;;77.85;28.30;;;-1.00;97.10;;;;;;4988975;28;20542;-70
2022/12/18 06:31:32;;;;;;;73.80;29.35;;;-1.00;97.00;;;;;;4993003;28;20104;-70
2022/12/18 06:33:57;;;;;;;75.55;28.20;;;-0.90;97.10;;;;;;4984267;28;20033;-70
2022/12/18 06:36:23;;;;;;;73.97;28.17;;;-0.70;96.90;;;;;;4992592;28;20490;-71
2022/12/18 06:38:49;;;;;;;67.97;25.67;;;-0.70;96.90;;;;;;4987476;28;20029;-71
2022/12/18 06:41:20;;;;;;;68.50;30.83;;;-0.70;96.60;;;;;;4988181;28;20041;-70
2022/12/18 06:43:46;;;;;;;65.40;26.05;;;-0.70;96.80;;;;;;4995281;28;20037;-70
2022/12/18 06:46:12;;;;;;;55.60;23.30;;;-0.50;96.60;;;;;;4990209;28;20093;-70
2022/12/18 06:48:38;;;;;;;68.78;25.17;;;-0.40;96.20;;;;;;4987399;28;20053;-70
2022/12/18 06:51:04;;;;;;;55.15;23.63;;;-0.40;96.10;;;;;;4990115;28;20031;-70
2022/12/18 06:53:29;;;;;;;50.65;22.92;;;-0.40;96.00;;;;;;4987157;28;20034;-70
2022/12/18 06:56:03;;;;;;;52.85;20.70;;;-0.20;95.80;;;;;;4995477;28;20034;-70
2022/12/18 06:58:29;;;;;;;52.60;22.95;;;-0.20;95.50;;;;;;4989450;28;20109;-70
2022/12/18 07:01:04;;;;;;;49.58;20.83;;;-0.10;95.40;;;;;;5000261;28;20125;-70
2022/12/18 07:03:30;;;;;;;54.10;23.08;;;-0.30;95.60;;;;;;4987525;28;20047;-70
2022/12/18 07:05:55;;;;;;;45.83;20.27;;;-0.20;95.30;;;;;;4991693;28;20060;-70
2022/12/18 07:08:21;;;;;;;44.38;19.95;;;-0.10;95.30;;;;;;4985105;28;20093;-70
2022/12/18 07:10:48;;;;;;;48.58;19.20;;;-0.20;95.30;;;;;;4995190;28;20033;-70
2022/12/18 07:13:17;;;;;;;48.40;21.05;;;0.00;95.30;;;;;;4989027;28;20453;-70
2022/12/18 07:15:43;;;;;;;50.10;21.80;;;0.00;95.00;;;;;;4990292;28;20098;-69
2022/12/18 07:18:09;;;;;;;48.30;21.67;;;-0.10;95.30;;;;;;4988558;28;20027;-70
2022/12/18 07:20:35;;;;;;;44.03;20.00;;;-0.10;95.30;;;;;;4990725;28;20490;-70
2022/12/18 07:23:03;;;;;;;45.77;20.57;;;0.00;95.10;;;;;;4985637;28;20101;-69
2022/12/18 07:25:29;;;;;;;47.83;19.63;;;0.00;95.00;;;;;;4990842;28;20599;-70
2022/12/18 07:27:54;;;;;;;49.38;19.88;;;0.20;94.80;;;;;;4985882;28;20092;-69
2022/12/18 07:30:20;;;;;;;43.40;19.80;;;0.20;94.40;;;;;;4987503;28;20085;-70
2022/12/18 07:32:45;;;;;;;54.03;19.73;;;0.30;94.20;;;;;;4992072;28;20038;-70
2022/12/18 07:35:11;;;;;;;49.47;21.08;;;0.30;94.40;;;;;;4988627;28;20039;-70
2022/12/18 07:37:37;;;;;;;44.83;21.23;;;0.30;94.20;;;;;;4985917;28;20349;-69
2022/12/18 07:40:02;;;;;;;45.47;19.63;;;0.30;94.10;;;;;;4989590;28;20055;-72
2022/12/18 07:42:31;;;;;;;44.00;20.15;;;0.30;94.40;;;;;;4989374;28;20125;-71
2022/12/18 07:44:58;;;;;;;45.25;20.20;;;0.30;94.20;;;;;;4989048;28;20534;-71
2022/12/18 07:47:23;;;;;;;51.50;23.00;;;0.30;94.40;;;;;;4982649;28;20118;-69
2022/12/18 07:49:49;;;;;;;45.05;21.83;;;0.20;94.60;;;;;;4987901;28;20097;-71
2022/12/18 07:52:15;;;;;;;50.53;21.85;;;0.20;94.50;;;;;;4989019;28;20074;-70
2022/12/18 07:54:41;;;;;;;47.90;21.70;;;0.20;94.60;;;;;;4987133;28;20031;-70
2022/12/18 07:57:07;;;;;;;51.53;22.25;;;0.10;94.70;;;;;;4991035;28;20053;-70
2022/12/18 07:59:33;;;;;;;46.72;19.35;;;0.30;94.80;;;;;;4988013;28;20065;-70
2022/12/18 08:01:58;;;;;;;42.80;19.05;;;0.90;93.90;;;;;;4987523;28;20074;-71
2022/12/18 08:04:25;;;;;;;39.25;18.10;;;1.40;92.80;;;;;;4986253;28;20030;-70
2022/12/18 08:06:50;;;;;;;42.22;18.83;;;1.20;92.40;;;;;;4988073;28;20041;-69
2022/12/18 08:09:16;;;;;;;39.83;19.30;;;1.40;92.40;;;;;;4988755;28;20018;-70
2022/12/18 08:11:42;;;;;;;37.00;16.87;;;1.20;92.10;;;;;;4986528;28;20117;-71
2022/12/18 08:14:08;;;;;;;33.20;14.88;;;1.30;92.20;;;;;;4987982;28;20038;-70
2022/12/18 08:16:34;;;;;;;34.75;17.25;;;1.40;92.00;;;;;;4991441;28;20038;-71
2022/12/18 08:18:59;;;;;;;37.00;16.70;;;1.40;91.90;;;;;;4988428;28;20042;-70
2022/12/18 08:21:28;;;;;;;42.83;17.75;;;1.40;92.00;;;;;;4976952;28;20577;-70
2022/12/18 08:23:55;;;;;;;35.17;17.15;;;1.40;91.90;;;;;;4994207;28;20034;-69
2022/12/18 08:26:22;;;;;;;30.85;15.25;;;1.40;91.90;;;;;;4986302;28;20121;-70
2022/12/18 08:28:48;;;;;;;36.25;16.10;;;1.50;91.60;;;;;;4987497;28;20045;-71
2022/12/18 08:31:13;;;;;;;34.67;16.02;;;1.60;91.80;;;;;;4983714;28;20114;-72
2022/12/18 08:33:40;;;;;;;34.00;16.95;;;1.60;91.70;;;;;;4980242;28;20150;-70
2022/12/18 08:36:06;;;;;;;33.97;16.10;;;1.60;91.80;;;;;;4989066;28;20565;-71
2022/12/18 08:38:33;;;;;;;37.42;18.23;;;1.60;91.70;;;;;;4988109;28;20034;-71
2022/12/18 08:41:03;;;;;;;43.00;18.48;;;1.60;91.70;;;;;;4976193;28;20410;-72
2022/12/18 08:46:17;;;;;;;30.35;16.05;;;2.00;92.00;;;;;;4988647;28;20034;-70
2022/12/18 08:48:43;;;;;;;28.05;15.07;;;3.30;90.60;;;;;;4991197;28;20042;-69
2022/12/18 08:51:11;;;;;;;23.42;13.43;;;4.20;87.90;;;;;;4990961;28;20032;-71
2022/12/18 08:53:37;;;;;;;26.20;13.30;;;4.60;85.20;;;;;;4991283;28;20087;-73
2022/12/18 08:56:04;;;;;;;22.92;13.82;;;5.20;81.30;;;;;;4992344;28;20034;-72
2022/12/18 08:58:30;;;;;;;24.70;13.73;;;5.50;80.10;;;;;;4991410;28;20062;-71
2022/12/18 09:01:03;;;;;;;22.63;12.27;;;5.40;80.50;;;;;;5002796;28;20045;-72
2022/12/18 09:03:29;;;;;;;24.55;12.60;;;5.80;78.20;;;;;;4993388;28;20046;-73
2022/12/18 09:05:54;;;;;;;23.05;12.80;;;5.30;78.40;;;;;;4996322;28;20085;-71
2022/12/18 09:08:20;;;;;;;20.53;11.70;;;5.30;80.00;;;;;;4996910;28;20068;-74
2022/12/18 09:10:48;;;;;;;22.60;12.17;;;5.40;79.80;;;;;;4995877;28;20068;-71
2022/12/18 09:13:15;;;;;;;24.15;12.18;;;4.90;80.40;;;;;;4993308;28;20498;-71
2022/12/18 09:15:47;;;;;;;28.23;13.95;;;4.50;80.10;;;;;;4992005;28;20025;-71
2022/12/18 09:18:14;;;;;;;50.83;15.95;;;4.20;83.40;;;;;;4995552;28;20033;-69
2022/12/18 09:20:40;;;;;;;30.50;14.68;;;4.00;83.90;;;;;;4991305;28;20022;-72
2022/12/18 09:23:07;;;;;;;28.05;14.48;;;4.00;83.60;;;;;;4993768;28;20461;-73
2022/12/18 09:25:35;;;;;;;38.58;16.42;;;4.00;85.50;;;;;;4994955;28;20038;-69
2022/12/18 09:28:12;;;;;;;36.80;16.17;;;4.00;83.80;;;;;;4991601;28;20472;-71
2022/12/18 09:30:39;;;;;;;35.88;17.27;;;3.90;84.40;;;;;;4991564;28;20498;-71
2022/12/18 09:33:04;;;;;;;31.35;15.48;;;3.90;85.20;;;;;;4993485;28;20169;-71
2022/12/18 09:35:30;;;;;;;29.83;14.43;;;4.10;84.10;;;;;;4991912;28;20105;-71
2022/12/18 09:37:56;;;;;;;35.00;15.93;;;4.20;83.60;;;;;;5000844;28;20115;-72
2022/12/18 09:40:24;;;;;;;31.43;14.57;;;4.20;84.00;;;;;;4990496;28;20409;-70
2022/12/18 09:42:58;;;;;;;25.75;13.35;;;4.20;84.40;;;;;;4990509;28;20073;-70
2022/12/18 09:45:24;;;;;;;28.35;13.82;;;4.30;83.60;;;;;;4991887;28;20041;-70
2022/12/18 09:47:52;;;;;;;26.55;13.88;;;4.30;84.30;;;;;;4996125;28;20120;-74
2022/12/18 09:50:29;;;;;;;20.70;10.07;;;4.30;84.00;;;;;;4991699;28;20522;-75
2022/12/18 09:52:56;;;;;;;;;;;4.30;83.80;;;;;;4993284;28;20065;-73
2022/12/18 09:55:25;;;;;;;24.80;11.60;;;4.30;84.00;;;;;;4991029;28;20467;-74
2022/12/18 09:58:07;;;;;;;23.50;12.77;;;4.30;84.20;;;;;;4990713;28;20101;-71
2022/12/18 10:00:33;;;;;;;23.25;12.18;;;4.40;83.80;;;;;;4991257;28;20041;-75
2022/12/18 10:03:10;;;;;;;21.85;11.35;;;4.50;84.40;;;;;;4989773;28;20406;-74
2022/12/18 10:05:38;;;;;;;22.85;11.85;;;4.60;84.20;;;;;;4991225;28;20117;-74
2022/12/18 10:08:23;;;;;;;27.02;14.07;;;4.60;85.00;;;;;;4992941;28;20088;-75
2022/12/18 10:10:54;;;;;;;21.48;11.63;;;4.70;85.20;;;;;;5006302;28;20571;-73
2022/12/18 10:13:40;;;;;;;23.63;12.00;;;4.70;83.90;;;;;;4994320;28;20138;-73
2022/12/18 10:16:10;;;;;;;23.90;11.60;;;4.70;83.80;;;;;;4984824;28;20034;-72
2022/12/18 10:19:06;;;;;;;19.60;10.15;;;4.80;83.50;;;;;;4990687;28;20520;-72
2022/12/18 10:22:22;;;;;;;31.60;13.60;;;4.90;83.10;;;;;;4989970;28;20034;-71
2022/12/18 10:25:05;;;;;;;23.20;13.38;;;5.00;83.10;;;;;;4951096;28;20072;-72
2022/12/18 10:27:31;;;;;;;25.02;13.25;;;5.00;82.00;;;;;;4954558;28;20542;-72
2022/12/18 10:29:57;;;;;;;25.58;13.73;;;5.10;83.20;;;;;;4966327;28;20039;-71
2022/12/18 10:32:28;;;;;;;26.38;14.57;;;5.10;82.40;;;;;;4991331;28;20431;-72
2022/12/18 10:34:57;;;;;;;24.50;12.82;;;5.30;83.60;;;;;;4989040;28;20098;-70
2022/12/18 10:37:28;;;;;;;23.98;12.52;;;5.30;82.00;;;;;;4987640;28;20395;-72
2022/12/18 10:40:12;;;;;;;22.92;12.25;;;5.40;82.70;;;;;;4991939;28;20037;-72
2022/12/18 10:42:39;;;;;;;31.70;14.75;;;5.40;82.10;;;;;;4990404;28;20084;-70
2022/12/18 10:45:12;;;;;;;27.10;13.93;;;5.50;81.90;;;;;;4987763;28;20069;-73
2022/12/18 10:48:17;;;;;;;26.02;13.55;;;5.60;83.10;;;;;;4988978;28;20518;-70
2022/12/18 10:50:48;;;;;;;27.02;13.40;;;5.50;82.70;;;;;;4990703;28;20177;-72
2022/12/18 10:53:22;;;;;;;22.48;12.65;;;5.60;81.30;;;;;;4985667;28;20121;-69
2022/12/18 10:55:49;;;;;;;24.27;13.48;;;5.60;82.70;;;;;;4989099;28;20397;-69
2022/12/18 10:58:28;;;;;;;25.48;14.02;;;5.70;82.80;;;;;;4988372;28;20042;-75
2022/12/18 11:01:12;;;;;;;25.65;13.77;;;5.80;84.00;;;;;;4988887;28;20417;-69
2022/12/18 11:03:45;;;;;;;24.23;13.35;;;5.80;82.90;;;;;;4986891;28;20529;-68
2022/12/18 11:06:18;;;;;;;24.83;13.10;;;5.80;83.60;;;;;;4989010;28;20396;-70
2022/12/18 11:08:58;;;;;;;29.13;13.90;;;5.90;81.70;;;;;;4987217;28;20500;-71
2022/12/18 11:11:25;;;;;;;25.70;11.88;;;5.90;82.50;;;;;;4988800;28;20517;-70
2022/12/18 11:14:10;;;;;;;;;;;6.00;82.60;;;;;;4986538;28;20038;-71
2022/12/18 11:16:45;;;;;;;23.88;12.57;;;6.00;83.20;;;;;;4989215;28;19917;-70
2022/12/18 11:19:28;;;;;;;24.48;11.38;;;6.00;83.50;;;;;;4988987;28;20026;-70
2022/12/18 11:21:54;;;;;;;26.08;12.18;;;6.00;82.90;;;;;;4986071;28;20525;-68
2022/12/18 11:24:22;;;;;;;22.07;11.90;;;6.10;83.30;;;;;;4989613;28;20359;-69
2022/12/18 11:26:48;;;;;;;22.42;11.55;;;6.10;82.90;;;;;;4991449;28;20253;-69
2022/12/18 11:29:23;;;;;;;26.65;11.63;;;6.20;83.10;;;;;;4985527;28;20042;-69
2022/12/18 11:31:49;;;;;;;17.48;9.35;;;6.30;83.30;;;;;;4985081;28;20038;-70
2022/12/18 11:34:29;;;;;;;24.87;10.87;;;6.30;83.10;;;;;;4988446;28;20026;-70
2022/12/18 11:36:54;;;;;;;23.83;12.25;;;6.30;83.80;;;;;;4981282;28;20549;-70
2022/12/18 11:39:42;;;;;;;19.13;10.87;;;6.40;83.10;;;;;;4989015;28;20038;-70
2022/12/18 11:42:35;;;;;;;21.27;11.82;;;6.50;83.40;;;;;;4988598;28;20348;-70
2022/12/18 11:45:50;;;;;;;23.35;11.45;;;6.50;84.70;;;;;;4985755;28;20045;-72
2022/12/18 11:48:30;;;;;;;19.30;8.85;;;6.60;84.50;;;;;;4966668;28;20050;-71
2022/12/18 11:50:58;;;;;;;21.77;9.50;;;6.80;84.40;;;;;;4993040;28;20398;-69
2022/12/18 11:53:27;;;;;;;17.13;8.57;;;6.80;85.00;;;;;;4987875;28;20030;-69
2022/12/18 11:56:05;;;;;;;12.07;7.20;;;7.10;83.80;;;;;;4986378;28;20088;-69
2022/12/18 11:58:34;;;;;;;16.27;7.97;;;7.20;83.70;;;;;;4988582;28;20041;-69
2022/12/18 12:01:38;;;;;;;13.73;7.47;;;7.40;84.10;;;;;;4989707;28;20570;-69
2022/12/18 12:04:12;;;;;;;21.08;7.63;;;7.40;83.10;;;;;;4978201;28;20034;-69
2022/12/18 12:06:50;;;;;;;17.20;8.25;;;7.50;83.30;;;;;;4989388;28;20030;-72
2022/12/18 12:09:45;;;;;;;15.20;7.25;;;7.70;83.20;;;;;;4976269;28;20175;-71
2022/12/18 12:12:53;;;;;;;12.50;6.70;;;7.80;83.60;;;;;;4984178;28;20107;-72
2022/12/18 12:15:35;;;;;;;11.70;6.30;;;8.00;84.00;;;;;;4988253;28;20030;-72
2022/12/18 12:18:20;;;;;;;13.30;7.00;;;8.10;82.40;;;;;;4983701;28;20058;-71
2022/12/18 12:20:45;;;;;;;13.57;6.95;;;8.30;82.20;;;;;;4985728;28;20026;-70
2022/12/18 12:23:28;;;;;;;11.13;6.57;;;8.30;81.80;;;;;;4985116;28;20100;-71
2022/12/18 12:26:36;;;;;;;10.00;5.72;;;8.40;81.50;;;;;;4987617;28;20088;-69
2022/12/18 12:29:45;;;;;;;11.70;6.00;;;8.50;81.10;;;;;;5002203;28;20046;-73
2022/12/18 12:32:34;;;;;;;13.32;6.38;;;8.50;82.60;;;;;;4976885;28;20848;-71
2022/12/18 12:35:10;;;;;;;19.10;7.05;;;8.50;82.20;;;;;;4984838;28;20042;-72
2022/12/18 12:38:06;;;;;;;11.88;6.15;;;8.60;82.20;;;;;;4988630;28;20018;-72
2022/12/18 12:40:37;;;;;;;10.65;5.82;;;8.60;80.60;;;;;;4990336;28;20060;-71
2022/12/18 12:43:33;;;;;;;12.70;6.22;;;8.70;81.00;;;;;;4989653;28;20092;-71
2022/12/18 12:46:03;;;;;;;14.68;6.68;;;8.80;81.00;;;;;;4989641;28;20200;-70
2022/12/18 12:48:35;;;;;;;11.00;6.78;;;8.80;80.10;;;;;;4987204;28;20505;-71
2022/12/18 12:51:04;;;;;;;13.52;7.05;;;8.80;80.80;;;;;;4984854;28;20038;-71
2022/12/18 12:53:35;;;;;;;13.27;6.93;;;8.90;79.20;;;;;;4984321;28;20033;-71
2022/12/18 12:56:02;;;;;;;15.45;7.68;;;8.90;79.80;;;;;;4983630;28;20088;-71
2022/12/18 12:58:54;;;;;;;11.15;6.40;;;8.90;80.30;;;;;;4986607;28;20052;-71